sensor_id;sensor_type;location;lat;lon;timestamp;P1;durP1;ratioP1;P2;durP2;ratioP2
75417;SDS011;63997;52.112;5.420;2023-06-14T00:02:14;4.00;;;1.80;;
75417;SDS011;63997;52.112;5.420;2023-06-14T00:04:42;5.70;;;1.88;;
75417;SDS011;63997;52.112;5.420;2023-06-14T00:07:09;4.63;;;2.22;;
75417;SDS011;63997;52.112;5.420;2023-06-14T00:09:39;4.05;;;1.70;;
75417;SDS011;63997;52.112;5.420;2023-06-14T00:12:05;3.67;;;1.67;;
75417;SDS011;63997;52.112;5.420;2023-06-14T00:14:33;7.95;;;1.80;;
75417;SDS011;63997;52.112;5.420;2023-06-14T00:16:59;6.72;;;1.88;;
75417;SDS011;63997;52.112;5.420;2023-06-14T00:19:26;3.40;;;1.77;;
75417;SDS011;63997;52.112;5.420;2023-06-14T00:21:52;3.50;;;1.80;;
75417;SDS011;63997;52.112;5.420;2023-06-14T00:24:19;2.67;;;1.30;;
75417;SDS011;63997;52.112;5.420;2023-06-14T00:26:46;7.15;;;1.73;;
75417;SDS011;63997;52.112;5.420;2023-06-14T00:29:13;6.20;;;1.73;;
75417;SDS011;63997;52.112;5.420;2023-06-14T00:31:39;4.40;;;1.65;;
75417;SDS011;63997;52.112;5.420;2023-06-14T00:34:06;4.50;;;1.75;;
75417;SDS011;63997;52.112;5.420;2023-06-14T00:36:32;4.97;;;1.80;;
75417;SDS011;63997;52.112;5.420;2023-06-14T00:38:59;5.32;;;1.90;;
75417;SDS011;63997;52.112;5.420;2023-06-14T00:41:25;4.40;;;2.55;;
75417;SDS011;63997;52.112;5.420;2023-06-14T00:43:53;3.15;;;1.77;;
75417;SDS011;63997;52.112;5.420;2023-06-14T00:46:21;3.55;;;1.60;;
75417;SDS011;63997;52.112;5.420;2023-06-14T00:48:48;4.07;;;1.73;;
75417;SDS011;63997;52.112;5.420;2023-06-14T00:51:15;3.50;;;1.85;;
75417;SDS011;63997;52.112;5.420;2023-06-14T00:53:41;4.30;;;1.73;;
75417;SDS011;63997;52.112;5.420;2023-06-14T00:56:15;4.90;;;2.15;;
75417;SDS011;63997;52.112;5.420;2023-06-14T00:58:42;2.55;;;1.50;;
75417;SDS011;63997;52.112;5.420;2023-06-14T01:01:09;4.27;;;1.83;;
75417;SDS011;63997;52.112;5.420;2023-06-14T01:03:36;3.13;;;1.52;;
75417;SDS011;63997;52.112;5.420;2023-06-14T01:06:05;5.18;;;1.65;;
75417;SDS011;63997;52.112;5.420;2023-06-14T01:08:47;5.47;;;1.67;;
75417;SDS011;63997;52.112;5.420;2023-06-14T01:11:25;2.45;;;1.58;;
75417;SDS011;63997;52.112;5.420;2023-06-14T01:13:56;10.67;;;1.83;;
75417;SDS011;63997;52.112;5.420;2023-06-14T01:16:26;6.35;;;2.00;;
75417;SDS011;63997;52.112;5.420;2023-06-14T01:18:53;3.10;;;1.73;;
75417;SDS011;63997;52.112;5.420;2023-06-14T01:21:22;5.55;;;1.63;;
75417;SDS011;63997;52.112;5.420;2023-06-14T01:23:51;3.60;;;1.73;;
75417;SDS011;63997;52.112;5.420;2023-06-14T01:26:20;5.67;;;2.00;;
75417;SDS011;63997;52.112;5.420;2023-06-14T01:28:48;3.05;;;1.83;;
75417;SDS011;63997;52.112;5.420;2023-06-14T01:31:17;10.57;;;2.20;;
75417;SDS011;63997;52.112;5.420;2023-06-14T01:33:48;9.32;;;1.90;;
75417;SDS011;63997;52.112;5.420;2023-06-14T01:36:17;7.25;;;2.33;;
75417;SDS011;63997;52.112;5.420;2023-06-14T01:38:46;6.27;;;1.70;;
75417;SDS011;63997;52.112;5.420;2023-06-14T01:41:14;2.40;;;1.70;;
75417;SDS011;63997;52.112;5.420;2023-06-14T01:43:42;3.28;;;1.75;;
75417;SDS011;63997;52.112;5.420;2023-06-14T01:46:09;4.95;;;1.75;;
75417;SDS011;63997;52.112;5.420;2023-06-14T01:48:36;2.88;;;1.80;;
75417;SDS011;63997;52.112;5.420;2023-06-14T01:51:03;4.50;;;1.83;;
75417;SDS011;63997;52.112;5.420;2023-06-14T01:53:29;5.88;;;1.75;;
75417;SDS011;63997;52.112;5.420;2023-06-14T01:55:56;4.65;;;1.98;;
75417;SDS011;63997;52.112;5.420;2023-06-14T01:58:22;3.20;;;2.10;;
75417;SDS011;63997;52.112;5.420;2023-06-14T02:00:50;3.17;;;1.73;;
75417;SDS011;63997;52.112;5.420;2023-06-14T02:03:17;5.40;;;2.50;;
75417;SDS011;63997;52.112;5.420;2023-06-14T02:05:45;6.93;;;2.50;;
75417;SDS011;63997;52.112;5.420;2023-06-14T02:08:11;5.35;;;2.05;;
75417;SDS011;63997;52.112;5.420;2023-06-14T02:10:38;4.03;;;1.63;;
75417;SDS011;63997;52.112;5.420;2023-06-14T02:13:04;4.93;;;1.92;;
75417;SDS011;63997;52.112;5.420;2023-06-14T02:15:31;7.00;;;2.10;;
75417;SDS011;63997;52.112;5.420;2023-06-14T02:18:03;3.40;;;1.90;;
75417;SDS011;63997;52.112;5.420;2023-06-14T02:20:31;5.97;;;2.05;;
75417;SDS011;63997;52.112;5.420;2023-06-14T02:22:57;4.85;;;1.63;;
75417;SDS011;63997;52.112;5.420;2023-06-14T02:25:24;2.55;;;1.48;;
75417;SDS011;63997;52.112;5.420;2023-06-14T02:27:51;4.07;;;1.60;;
75417;SDS011;63997;52.112;5.420;2023-06-14T02:30:17;5.18;;;1.50;;
75417;SDS011;63997;52.112;5.420;2023-06-14T02:32:44;4.00;;;1.73;;
75417;SDS011;63997;52.112;5.420;2023-06-14T02:35:10;5.20;;;2.10;;
75417;SDS011;63997;52.112;5.420;2023-06-14T02:37:37;3.47;;;1.63;;
75417;SDS011;63997;52.112;5.420;2023-06-14T02:40:04;2.90;;;1.40;;
75417;SDS011;63997;52.112;5.420;2023-06-14T02:42:32;3.95;;;1.52;;
75417;SDS011;63997;52.112;5.420;2023-06-14T02:44:58;4.75;;;1.77;;
75417;SDS011;63997;52.112;5.420;2023-06-14T02:47:24;5.22;;;1.60;;
75417;SDS011;63997;52.112;5.420;2023-06-14T02:49:51;5.40;;;1.85;;
75417;SDS011;63997;52.112;5.420;2023-06-14T02:52:18;3.60;;;1.70;;
75417;SDS011;63997;52.112;5.420;2023-06-14T02:54:44;5.82;;;1.75;;
75417;SDS011;63997;52.112;5.420;2023-06-14T02:57:13;4.15;;;2.00;;
75417;SDS011;63997;52.112;5.420;2023-06-14T02:59:39;4.78;;;1.92;;
75417;SDS011;63997;52.112;5.420;2023-06-14T03:02:06;6.03;;;1.63;;
75417;SDS011;63997;52.112;5.420;2023-06-14T03:04:32;3.80;;;1.50;;
75417;SDS011;63997;52.112;5.420;2023-06-14T03:07:03;4.03;;;2.00;;
75417;SDS011;63997;52.112;5.420;2023-06-14T03:09:35;3.22;;;2.03;;
75417;SDS011;63997;52.112;5.420;2023-06-14T03:12:06;4.88;;;1.63;;
75417;SDS011;63997;52.112;5.420;2023-06-14T03:14:36;3.58;;;1.70;;
75417;SDS011;63997;52.112;5.420;2023-06-14T03:17:03;3.33;;;1.70;;
75417;SDS011;63997;52.112;5.420;2023-06-14T03:19:31;6.75;;;1.77;;
75417;SDS011;63997;52.112;5.420;2023-06-14T03:21:57;6.13;;;2.20;;
75417;SDS011;63997;52.112;5.420;2023-06-14T03:24:24;5.95;;;1.45;;
75417;SDS011;63997;52.112;5.420;2023-06-14T03:26:53;2.38;;;1.60;;
75417;SDS011;63997;52.112;5.420;2023-06-14T03:29:20;4.60;;;1.63;;
75417;SDS011;63997;52.112;5.420;2023-06-14T03:31:57;4.40;;;1.70;;
75417;SDS011;63997;52.112;5.420;2023-06-14T03:34:28;4.88;;;1.92;;
75417;SDS011;63997;52.112;5.420;2023-06-14T03:36:55;2.05;;;1.33;;
75417;SDS011;63997;52.112;5.420;2023-06-14T03:39:21;3.75;;;1.98;;
75417;SDS011;63997;52.112;5.420;2023-06-14T03:41:48;3.97;;;1.60;;
75417;SDS011;63997;52.112;5.420;2023-06-14T03:44:15;4.88;;;1.58;;
75417;SDS011;63997;52.112;5.420;2023-06-14T03:46:44;8.75;;;1.95;;
75417;SDS011;63997;52.112;5.420;2023-06-14T03:49:12;5.90;;;1.85;;
75417;SDS011;63997;52.112;5.420;2023-06-14T03:51:39;4.30;;;2.00;;
75417;SDS011;63997;52.112;5.420;2023-06-14T03:54:06;3.77;;;1.60;;
75417;SDS011;63997;52.112;5.420;2023-06-14T03:56:52;2.30;;;1.35;;
75417;SDS011;63997;52.112;5.420;2023-06-14T03:59:19;4.03;;;1.13;;
75417;SDS011;63997;52.112;5.420;2023-06-14T04:01:46;4.32;;;1.50;;
75417;SDS011;63997;52.112;5.420;2023-06-14T04:04:12;2.67;;;1.75;;
75417;SDS011;63997;52.112;5.420;2023-06-14T04:06:39;6.43;;;2.00;;
75417;SDS011;63997;52.112;5.420;2023-06-14T04:09:07;5.32;;;1.75;;
75417;SDS011;63997;52.112;5.420;2023-06-14T04:11:33;3.55;;;1.80;;
75417;SDS011;63997;52.112;5.420;2023-06-14T04:14:01;4.07;;;1.75;;
75417;SDS011;63997;52.112;5.420;2023-06-14T04:16:28;5.90;;;1.98;;
75417;SDS011;63997;52.112;5.420;2023-06-14T04:18:55;5.37;;;1.80;;
75417;SDS011;63997;52.112;5.420;2023-06-14T04:21:21;3.80;;;2.28;;
75417;SDS011;63997;52.112;5.420;2023-06-14T04:23:50;3.58;;;1.63;;
75417;SDS011;63997;52.112;5.420;2023-06-14T04:26:19;3.25;;;1.55;;
75417;SDS011;63997;52.112;5.420;2023-06-14T04:28:45;8.35;;;1.95;;
75417;SDS011;63997;52.112;5.420;2023-06-14T04:31:13;3.87;;;2.13;;
75417;SDS011;63997;52.112;5.420;2023-06-14T04:33:39;3.97;;;1.85;;
75417;SDS011;63997;52.112;5.420;2023-06-14T04:36:12;5.00;;;1.60;;
75417;SDS011;63997;52.112;5.420;2023-06-14T04:38:39;5.50;;;1.98;;
75417;SDS011;63997;52.112;5.420;2023-06-14T04:41:05;5.30;;;2.00;;
75417;SDS011;63997;52.112;5.420;2023-06-14T04:43:32;2.77;;;1.50;;
75417;SDS011;63997;52.112;5.420;2023-06-14T04:46:07;4.07;;;1.85;;
75417;SDS011;63997;52.112;5.420;2023-06-14T04:48:39;3.38;;;1.75;;
75417;SDS011;63997;52.112;5.420;2023-06-14T04:51:08;4.72;;;1.75;;
75417;SDS011;63997;52.112;5.420;2023-06-14T04:53:35;5.82;;;2.03;;
75417;SDS011;63997;52.112;5.420;2023-06-14T04:56:02;3.80;;;1.70;;
75417;SDS011;63997;52.112;5.420;2023-06-14T04:58:29;3.15;;;1.77;;
75417;SDS011;63997;52.112;5.420;2023-06-14T05:00:56;8.68;;;2.05;;
75417;SDS011;63997;52.112;5.420;2023-06-14T05:03:23;4.90;;;1.55;;
75417;SDS011;63997;52.112;5.420;2023-06-14T05:05:50;4.93;;;1.83;;
75417;SDS011;63997;52.112;5.420;2023-06-14T05:08:17;2.77;;;1.30;;
75417;SDS011;63997;52.112;5.420;2023-06-14T05:10:43;6.30;;;2.03;;
75417;SDS011;63997;52.112;5.420;2023-06-14T05:13:09;4.50;;;1.77;;
75417;SDS011;63997;52.112;5.420;2023-06-14T05:15:37;5.70;;;2.15;;
75417;SDS011;63997;52.112;5.420;2023-06-14T05:18:03;4.25;;;1.40;;
75417;SDS011;63997;52.112;5.420;2023-06-14T05:20:30;4.50;;;1.90;;
75417;SDS011;63997;52.112;5.420;2023-06-14T05:22:57;3.80;;;1.92;;
75417;SDS011;63997;52.112;5.420;2023-06-14T05:25:24;5.22;;;1.75;;
75417;SDS011;63997;52.112;5.420;2023-06-14T05:27:50;4.85;;;1.70;;
75417;SDS011;63997;52.112;5.420;2023-06-14T05:30:16;4.20;;;1.65;;
75417;SDS011;63997;52.112;5.420;2023-06-14T05:32:43;5.17;;;1.57;;
75417;SDS011;63997;52.112;5.420;2023-06-14T05:35:10;4.75;;;2.05;;
75417;SDS011;63997;52.112;5.420;2023-06-14T05:37:36;7.78;;;2.25;;
75417;SDS011;63997;52.112;5.420;2023-06-14T05:40:03;3.50;;;1.63;;
75417;SDS011;63997;52.112;5.420;2023-06-14T05:42:32;6.75;;;2.00;;
75417;SDS011;63997;52.112;5.420;2023-06-14T05:44:59;6.63;;;1.97;;
75417;SDS011;63997;52.112;5.420;2023-06-14T05:47:26;5.82;;;1.90;;
75417;SDS011;63997;52.112;5.420;2023-06-14T05:49:54;10.85;;;2.30;;
75417;SDS011;63997;52.112;5.420;2023-06-14T05:52:21;6.60;;;1.88;;
75417;SDS011;63997;52.112;5.420;2023-06-14T05:54:47;5.35;;;1.65;;
75417;SDS011;63997;52.112;5.420;2023-06-14T05:57:14;6.07;;;2.13;;
75417;SDS011;63997;52.112;5.420;2023-06-14T05:59:41;3.83;;;1.83;;
75417;SDS011;63997;52.112;5.420;2023-06-14T06:02:07;4.68;;;1.77;;
75417;SDS011;63997;52.112;5.420;2023-06-14T06:04:35;3.17;;;2.10;;
75417;SDS011;63997;52.112;5.420;2023-06-14T06:07:02;3.55;;;1.90;;
75417;SDS011;63997;52.112;5.420;2023-06-14T06:09:29;8.83;;;2.13;;
75417;SDS011;63997;52.112;5.420;2023-06-14T06:11:56;3.45;;;1.70;;
75417;SDS011;63997;52.112;5.420;2023-06-14T06:14:22;4.68;;;1.80;;
75417;SDS011;63997;52.112;5.420;2023-06-14T06:16:49;4.18;;;1.88;;
75417;SDS011;63997;52.112;5.420;2023-06-14T06:19:15;5.35;;;1.73;;
75417;SDS011;63997;52.112;5.420;2023-06-14T06:21:42;5.37;;;2.00;;
75417;SDS011;63997;52.112;5.420;2023-06-14T06:24:08;2.25;;;1.67;;
75417;SDS011;63997;52.112;5.420;2023-06-14T06:26:35;4.00;;;2.20;;
75417;SDS011;63997;52.112;5.420;2023-06-14T06:29:01;4.35;;;1.70;;
75417;SDS011;63997;52.112;5.420;2023-06-14T06:31:28;2.75;;;1.73;;
75417;SDS011;63997;52.112;5.420;2023-06-14T06:33:54;6.90;;;2.20;;
75417;SDS011;63997;52.112;5.420;2023-06-14T06:36:21;5.45;;;1.75;;
75417;SDS011;63997;52.112;5.420;2023-06-14T06:38:48;2.80;;;2.08;;
75417;SDS011;63997;52.112;5.420;2023-06-14T06:41:15;4.65;;;2.20;;
75417;SDS011;63997;52.112;5.420;2023-06-14T06:43:41;4.18;;;1.70;;
75417;SDS011;63997;52.112;5.420;2023-06-14T06:46:08;4.47;;;1.70;;
75417;SDS011;63997;52.112;5.420;2023-06-14T06:48:34;2.63;;;1.88;;
75417;SDS011;63997;52.112;5.420;2023-06-14T06:51:01;4.43;;;1.80;;
75417;SDS011;63997;52.112;5.420;2023-06-14T06:53:27;3.90;;;2.00;;
75417;SDS011;63997;52.112;5.420;2023-06-14T06:56:05;3.83;;;1.95;;
75417;SDS011;63997;52.112;5.420;2023-06-14T06:58:31;3.03;;;1.70;;
75417;SDS011;63997;52.112;5.420;2023-06-14T07:00:58;4.25;;;2.40;;
75417;SDS011;63997;52.112;5.420;2023-06-14T07:03:24;11.38;;;2.40;;
75417;SDS011;63997;52.112;5.420;2023-06-14T07:05:51;2.88;;;1.73;;
75417;SDS011;63997;52.112;5.420;2023-06-14T07:08:17;6.03;;;2.13;;
75417;SDS011;63997;52.112;5.420;2023-06-14T07:10:43;4.03;;;1.77;;
75417;SDS011;63997;52.112;5.420;2023-06-14T07:13:10;4.88;;;2.13;;
75417;SDS011;63997;52.112;5.420;2023-06-14T07:15:37;3.25;;;1.83;;
75417;SDS011;63997;52.112;5.420;2023-06-14T07:18:03;4.38;;;2.33;;
75417;SDS011;63997;52.112;5.420;2023-06-14T07:20:30;3.10;;;1.70;;
75417;SDS011;63997;52.112;5.420;2023-06-14T07:22:57;8.47;;;2.87;;
75417;SDS011;63997;52.112;5.420;2023-06-14T07:25:23;3.78;;;1.65;;
75417;SDS011;63997;52.112;5.420;2023-06-14T07:27:49;4.18;;;1.50;;
75417;SDS011;63997;52.112;5.420;2023-06-14T07:30:16;6.85;;;1.75;;
75417;SDS011;63997;52.112;5.420;2023-06-14T07:32:42;2.67;;;1.40;;
75417;SDS011;63997;52.112;5.420;2023-06-14T07:35:09;4.43;;;1.47;;
75417;SDS011;63997;52.112;5.420;2023-06-14T07:37:36;5.80;;;1.77;;
75417;SDS011;63997;52.112;5.420;2023-06-14T07:40:02;5.05;;;1.50;;
75417;SDS011;63997;52.112;5.420;2023-06-14T07:42:33;5.35;;;1.90;;
75417;SDS011;63997;52.112;5.420;2023-06-14T07:45:02;2.03;;;1.52;;
75417;SDS011;63997;52.112;5.420;2023-06-14T07:47:29;5.97;;;1.43;;
75417;SDS011;63997;52.112;5.420;2023-06-14T07:49:56;4.40;;;1.55;;
75417;SDS011;63997;52.112;5.420;2023-06-14T07:52:22;2.10;;;1.42;;
75417;SDS011;63997;52.112;5.420;2023-06-14T07:54:49;6.55;;;1.40;;
75417;SDS011;63997;52.112;5.420;2023-06-14T07:57:16;2.67;;;1.50;;
75417;SDS011;63997;52.112;5.420;2023-06-14T07:59:42;1.80;;;1.30;;
75417;SDS011;63997;52.112;5.420;2023-06-14T08:02:08;8.20;;;1.67;;
75417;SDS011;63997;52.112;5.420;2023-06-14T08:04:35;7.15;;;1.50;;
75417;SDS011;63997;52.112;5.420;2023-06-14T08:07:02;6.30;;;1.55;;
75417;SDS011;63997;52.112;5.420;2023-06-14T08:09:32;5.70;;;1.05;;
75417;SDS011;63997;52.112;5.420;2023-06-14T08:11:58;2.77;;;1.40;;
75417;SDS011;63997;52.112;5.420;2023-06-14T08:14:25;4.85;;;1.45;;
75417;SDS011;63997;52.112;5.420;2023-06-14T08:16:51;1.65;;;1.00;;
75417;SDS011;63997;52.112;5.420;2023-06-14T08:19:18;2.22;;;1.40;;
75417;SDS011;63997;52.112;5.420;2023-06-14T08:21:45;4.43;;;1.15;;
75417;SDS011;63997;52.112;5.420;2023-06-14T08:24:12;2.90;;;1.37;;
75417;SDS011;63997;52.112;5.420;2023-06-14T08:26:39;3.47;;;1.10;;
75417;SDS011;63997;52.112;5.420;2023-06-14T08:29:05;2.72;;;1.02;;
75417;SDS011;63997;52.112;5.420;2023-06-14T08:31:35;2.50;;;0.95;;
75417;SDS011;63997;52.112;5.420;2023-06-14T08:34:01;3.25;;;1.10;;
75417;SDS011;63997;52.112;5.420;2023-06-14T08:36:32;1.73;;;0.97;;
75417;SDS011;63997;52.112;5.420;2023-06-14T08:38:58;3.15;;;1.15;;
75417;SDS011;63997;52.112;5.420;2023-06-14T08:41:25;2.75;;;0.85;;
75417;SDS011;63997;52.112;5.420;2023-06-14T08:43:52;2.60;;;0.88;;
75417;SDS011;63997;52.112;5.420;2023-06-14T08:46:18;5.22;;;0.95;;
75417;SDS011;63997;52.112;5.420;2023-06-14T08:48:48;3.77;;;1.00;;
75417;SDS011;63997;52.112;5.420;2023-06-14T08:51:17;1.42;;;0.70;;
75417;SDS011;63997;52.112;5.420;2023-06-14T08:53:44;1.67;;;0.88;;
75417;SDS011;63997;52.112;5.420;2023-06-14T08:56:12;5.30;;;1.38;;
75417;SDS011;63997;52.112;5.420;2023-06-14T08:58:42;2.75;;;0.90;;
75417;SDS011;63997;52.112;5.420;2023-06-14T09:01:11;2.33;;;0.90;;
75417;SDS011;63997;52.112;5.420;2023-06-14T09:03:41;6.53;;;0.88;;
75417;SDS011;63997;52.112;5.420;2023-06-14T09:06:08;2.00;;;0.90;;
75417;SDS011;63997;52.112;5.420;2023-06-14T09:08:40;2.22;;;0.70;;
75417;SDS011;63997;52.112;5.420;2023-06-14T09:11:13;2.22;;;0.98;;
75417;SDS011;63997;52.112;5.420;2023-06-14T09:13:41;1.53;;;0.90;;
75417;SDS011;63997;52.112;5.420;2023-06-14T09:16:08;2.85;;;0.75;;
75417;SDS011;63997;52.112;5.420;2023-06-14T09:18:44;2.80;;;0.82;;
75417;SDS011;63997;52.112;5.420;2023-06-14T09:21:15;2.72;;;0.77;;
75417;SDS011;63997;52.112;5.420;2023-06-14T09:23:43;4.10;;;0.77;;
75417;SDS011;63997;52.112;5.420;2023-06-14T09:26:12;3.87;;;0.90;;
75417;SDS011;63997;52.112;5.420;2023-06-14T09:28:49;1.30;;;1.02;;
75417;SDS011;63997;52.112;5.420;2023-06-14T09:31:17;1.15;;;0.90;;
75417;SDS011;63997;52.112;5.420;2023-06-14T09:33:47;3.25;;;1.40;;
75417;SDS011;63997;52.112;5.420;2023-06-14T09:36:15;3.13;;;1.10;;
75417;SDS011;63997;52.112;5.420;2023-06-14T09:39:02;3.07;;;1.07;;
75417;SDS011;63997;52.112;5.420;2023-06-14T09:41:34;1.70;;;0.70;;
75417;SDS011;63997;52.112;5.420;2023-06-14T09:44:02;4.38;;;1.48;;
75417;SDS011;63997;52.112;5.420;2023-06-14T09:46:36;1.98;;;0.85;;
75417;SDS011;63997;52.112;5.420;2023-06-14T09:49:04;12.60;;;0.93;;
75417;SDS011;63997;52.112;5.420;2023-06-14T09:51:32;3.60;;;0.80;;
75417;SDS011;63997;52.112;5.420;2023-06-14T09:54:02;2.17;;;0.80;;
75417;SDS011;63997;52.112;5.420;2023-06-14T09:56:44;2.25;;;1.13;;
75417;SDS011;63997;52.112;5.420;2023-06-14T09:59:12;5.70;;;0.90;;
75417;SDS011;63997;52.112;5.420;2023-06-14T10:01:42;2.33;;;1.00;;
75417;SDS011;63997;52.112;5.420;2023-06-14T10:04:10;2.53;;;0.70;;
75417;SDS011;63997;52.112;5.420;2023-06-14T10:06:39;1.40;;;0.90;;
75417;SDS011;63997;52.112;5.420;2023-06-14T10:09:08;1.50;;;0.82;;
75417;SDS011;63997;52.112;5.420;2023-06-14T10:11:35;2.42;;;0.80;;
75417;SDS011;63997;52.112;5.420;2023-06-14T10:14:03;5.78;;;0.70;;
75417;SDS011;63997;52.112;5.420;2023-06-14T10:16:37;1.60;;;0.80;;
75417;SDS011;63997;52.112;5.420;2023-06-14T10:19:27;3.25;;;0.70;;
75417;SDS011;63997;52.112;5.420;2023-06-14T10:22:02;1.77;;;0.73;;
75417;SDS011;63997;52.112;5.420;2023-06-14T10:24:35;2.22;;;0.98;;
75417;SDS011;63997;52.112;5.420;2023-06-14T10:27:06;1.42;;;0.80;;
75417;SDS011;63997;52.112;5.420;2023-06-14T10:32:18;1.50;;;0.80;;
75417;SDS011;63997;52.112;5.420;2023-06-14T10:34:45;4.57;;;1.05;;
75417;SDS011;63997;52.112;5.420;2023-06-14T10:37:12;4.13;;;0.80;;
75417;SDS011;63997;52.112;5.420;2023-06-14T10:39:40;4.57;;;0.80;;
75417;SDS011;63997;52.112;5.420;2023-06-14T10:42:08;2.80;;;0.80;;
75417;SDS011;63997;52.112;5.420;2023-06-14T10:44:45;1.83;;;0.75;;
75417;SDS011;63997;52.112;5.420;2023-06-14T10:47:25;1.35;;;0.80;;
75417;SDS011;63997;52.112;5.420;2023-06-14T10:50:02;1.38;;;1.05;;
75417;SDS011;63997;52.112;5.420;2023-06-14T10:52:40;12.07;;;1.20;;
75417;SDS011;63997;52.112;5.420;2023-06-14T10:55:15;0.87;;;0.57;;
75417;SDS011;63997;52.112;5.420;2023-06-14T10:57:46;6.57;;;0.70;;
75417;SDS011;63997;52.112;5.420;2023-06-14T11:00:20;3.03;;;0.90;;
75417;SDS011;63997;52.112;5.420;2023-06-14T11:06:09;1.73;;;0.80;;
75417;SDS011;63997;52.112;5.420;2023-06-14T11:11:12;3.85;;;0.77;;
75417;SDS011;63997;52.112;5.420;2023-06-14T11:13:41;3.95;;;0.98;;
75417;SDS011;63997;52.112;5.420;2023-06-14T11:16:12;4.15;;;0.80;;
75417;SDS011;63997;52.112;5.420;2023-06-14T11:18:40;1.85;;;0.80;;
75417;SDS011;63997;52.112;5.420;2023-06-14T11:21:07;4.03;;;1.03;;
75417;SDS011;63997;52.112;5.420;2023-06-14T11:23:35;2.42;;;0.88;;
75417;SDS011;63997;52.112;5.420;2023-06-14T11:26:02;3.63;;;0.80;;
75417;SDS011;63997;52.112;5.420;2023-06-14T11:28:40;2.63;;;0.57;;
75417;SDS011;63997;52.112;5.420;2023-06-14T11:31:09;2.78;;;0.80;;
75417;SDS011;63997;52.112;5.420;2023-06-14T11:33:36;0.90;;;0.80;;
75417;SDS011;63997;52.112;5.420;2023-06-14T11:36:03;2.08;;;0.85;;
75417;SDS011;63997;52.112;5.420;2023-06-14T11:38:34;2.63;;;0.95;;
75417;SDS011;63997;52.112;5.420;2023-06-14T11:41:02;2.05;;;0.70;;
75417;SDS011;63997;52.112;5.420;2023-06-14T11:43:28;2.38;;;1.00;;
75417;SDS011;63997;52.112;5.420;2023-06-14T11:45:58;2.00;;;0.77;;
75417;SDS011;63997;52.112;5.420;2023-06-14T11:48:40;2.88;;;1.00;;
75417;SDS011;63997;52.112;5.420;2023-06-14T11:51:08;1.63;;;0.85;;
75417;SDS011;63997;52.112;5.420;2023-06-14T11:53:35;1.25;;;0.88;;
75417;SDS011;63997;52.112;5.420;2023-06-14T11:56:02;2.25;;;1.10;;
75417;SDS011;63997;52.112;5.420;2023-06-14T11:58:29;2.33;;;0.70;;
75417;SDS011;63997;52.112;5.420;2023-06-14T12:00:56;4.13;;;0.85;;
75417;SDS011;63997;52.112;5.420;2023-06-14T12:03:23;2.78;;;0.82;;
75417;SDS011;63997;52.112;5.420;2023-06-14T12:06:04;2.72;;;0.90;;
75417;SDS011;63997;52.112;5.420;2023-06-14T12:08:37;1.52;;;0.90;;
75417;SDS011;63997;52.112;5.420;2023-06-14T12:11:11;2.07;;;1.00;;
75417;SDS011;63997;52.112;5.420;2023-06-14T12:13:38;1.20;;;0.65;;
75417;SDS011;63997;52.112;5.420;2023-06-14T12:16:10;3.15;;;1.05;;
75417;SDS011;63997;52.112;5.420;2023-06-14T12:18:38;2.38;;;0.90;;
75417;SDS011;63997;52.112;5.420;2023-06-14T12:21:06;2.97;;;0.88;;
75417;SDS011;63997;52.112;5.420;2023-06-14T12:23:43;3.73;;;1.10;;
75417;SDS011;63997;52.112;5.420;2023-06-14T12:26:17;1.33;;;0.70;;
75417;SDS011;63997;52.112;5.420;2023-06-14T12:28:45;1.30;;;0.90;;
75417;SDS011;63997;52.112;5.420;2023-06-14T12:31:13;2.03;;;0.98;;
75417;SDS011;63997;52.112;5.420;2023-06-14T12:33:41;2.60;;;1.00;;
75417;SDS011;63997;52.112;5.420;2023-06-14T12:36:08;4.20;;;0.80;;
75417;SDS011;63997;52.112;5.420;2023-06-14T12:38:36;6.05;;;1.10;;
75417;SDS011;63997;52.112;5.420;2023-06-14T12:41:03;2.63;;;0.80;;
75417;SDS011;63997;52.112;5.420;2023-06-14T12:43:30;3.78;;;1.30;;
75417;SDS011;63997;52.112;5.420;2023-06-14T12:45:56;1.65;;;0.82;;
75417;SDS011;63997;52.112;5.420;2023-06-14T12:48:23;2.17;;;0.80;;
75417;SDS011;63997;52.112;5.420;2023-06-14T12:50:49;1.48;;;0.73;;
75417;SDS011;63997;52.112;5.420;2023-06-14T12:53:16;1.85;;;0.90;;
75417;SDS011;63997;52.112;5.420;2023-06-14T12:55:43;4.35;;;1.00;;
75417;SDS011;63997;52.112;5.420;2023-06-14T12:58:10;1.02;;;0.65;;
75417;SDS011;63997;52.112;5.420;2023-06-14T13:00:38;2.67;;;0.90;;
75417;SDS011;63997;52.112;5.420;2023-06-14T13:03:05;3.60;;;0.85;;
75417;SDS011;63997;52.112;5.420;2023-06-14T13:05:32;2.65;;;0.75;;
75417;SDS011;63997;52.112;5.420;2023-06-14T13:07:59;8.43;;;0.90;;
75417;SDS011;63997;52.112;5.420;2023-06-14T13:10:26;1.75;;;1.10;;
75417;SDS011;63997;52.112;5.420;2023-06-14T13:12:54;3.20;;;1.20;;
75417;SDS011;63997;52.112;5.420;2023-06-14T13:15:20;2.50;;;0.90;;
75417;SDS011;63997;52.112;5.420;2023-06-14T13:17:47;2.13;;;0.85;;
75417;SDS011;63997;52.112;5.420;2023-06-14T13:23:11;1.38;;;0.90;;
75417;SDS011;63997;52.112;5.420;2023-06-14T13:25:38;4.37;;;1.10;;
75417;SDS011;63997;52.112;5.420;2023-06-14T13:28:05;3.85;;;0.90;;
75417;SDS011;63997;52.112;5.420;2023-06-14T13:30:32;1.80;;;0.73;;
75417;SDS011;63997;52.112;5.420;2023-06-14T13:33:00;1.15;;;0.77;;
75417;SDS011;63997;52.112;5.420;2023-06-14T13:35:29;1.42;;;1.00;;
75417;SDS011;63997;52.112;5.420;2023-06-14T13:37:55;3.50;;;0.93;;
75417;SDS011;63997;52.112;5.420;2023-06-14T13:40:22;1.58;;;0.98;;
75417;SDS011;63997;52.112;5.420;2023-06-14T13:42:48;4.45;;;1.00;;
75417;SDS011;63997;52.112;5.420;2023-06-14T13:45:15;3.30;;;0.98;;
75417;SDS011;63997;52.112;5.420;2023-06-14T13:47:42;3.45;;;1.00;;
75417;SDS011;63997;52.112;5.420;2023-06-14T13:50:09;7.20;;;1.00;;
75417;SDS011;63997;52.112;5.420;2023-06-14T13:52:36;1.65;;;0.80;;
75417;SDS011;63997;52.112;5.420;2023-06-14T13:55:03;4.60;;;0.93;;
75417;SDS011;63997;52.112;5.420;2023-06-14T13:57:30;7.28;;;1.70;;
75417;SDS011;63997;52.112;5.420;2023-06-14T13:59:58;2.20;;;0.90;;
75417;SDS011;63997;52.112;5.420;2023-06-14T14:02:27;0.97;;;0.77;;
75417;SDS011;63997;52.112;5.420;2023-06-14T14:04:56;6.93;;;1.10;;
75417;SDS011;63997;52.112;5.420;2023-06-14T14:07:23;6.05;;;1.05;;
75417;SDS011;63997;52.112;5.420;2023-06-14T14:09:49;1.10;;;0.90;;
75417;SDS011;63997;52.112;5.420;2023-06-14T14:12:16;3.08;;;0.80;;
75417;SDS011;63997;52.112;5.420;2023-06-14T14:14:49;2.93;;;0.80;;
75417;SDS011;63997;52.112;5.420;2023-06-14T14:17:16;2.15;;;0.77;;
75417;SDS011;63997;52.112;5.420;2023-06-14T14:19:43;1.42;;;0.70;;
75417;SDS011;63997;52.112;5.420;2023-06-14T14:22:10;2.25;;;0.70;;
75417;SDS011;63997;52.112;5.420;2023-06-14T14:24:38;1.27;;;0.70;;
75417;SDS011;63997;52.112;5.420;2023-06-14T14:27:05;1.13;;;0.60;;
75417;SDS011;63997;52.112;5.420;2023-06-14T14:29:32;2.28;;;0.68;;
75417;SDS011;63997;52.112;5.420;2023-06-14T14:31:59;2.72;;;0.85;;
75417;SDS011;63997;52.112;5.420;2023-06-14T14:34:32;3.08;;;0.65;;
75417;SDS011;63997;52.112;5.420;2023-06-14T14:36:59;1.60;;;0.60;;
75417;SDS011;63997;52.112;5.420;2023-06-14T14:39:25;2.80;;;0.70;;
75417;SDS011;63997;52.112;5.420;2023-06-14T14:41:51;0.80;;;0.70;;
75417;SDS011;63997;52.112;5.420;2023-06-14T14:44:25;2.10;;;0.90;;
75417;SDS011;63997;52.112;5.420;2023-06-14T14:46:51;4.88;;;0.70;;
75417;SDS011;63997;52.112;5.420;2023-06-14T14:49:18;1.70;;;0.57;;
75417;SDS011;63997;52.112;5.420;2023-06-14T14:51:44;2.27;;;0.63;;
75417;SDS011;63997;52.112;5.420;2023-06-14T14:54:12;1.75;;;0.50;;
75417;SDS011;63997;52.112;5.420;2023-06-14T14:56:38;1.92;;;0.63;;
75417;SDS011;63997;52.112;5.420;2023-06-14T14:59:05;2.10;;;0.68;;
75417;SDS011;63997;52.112;5.420;2023-06-14T15:01:31;2.83;;;0.55;;
75417;SDS011;63997;52.112;5.420;2023-06-14T15:04:05;0.90;;;0.43;;
75417;SDS011;63997;52.112;5.420;2023-06-14T15:06:31;2.30;;;0.50;;